createdAt,value
2023-03-06T00:01:31.152Z,2.83
2023-03-06T00:06:52.086Z,2.17
2023-03-06T00:12:12.900Z,2.35
2023-03-06T00:17:33.772Z,2.10
2023-03-06T00:22:56.055Z,2.00
2023-03-06T00:28:17.980Z,2.15
2023-03-06T00:33:38.625Z,2.40
2023-03-06T00:38:59.356Z,1.85
2023-03-06T00:44:20.277Z,2.45
2023-03-06T00:49:41.540Z,1.85
2023-03-06T00:55:02.650Z,2.28
2023-03-06T01:00:23.554Z,2.38
2023-03-06T01:05:44.285Z,2.33
2023-03-06T01:11:06.075Z,2.42
2023-03-06T01:16:26.936Z,2.10
2023-03-06T01:21:47.730Z,2.60
2023-03-06T01:27:08.429Z,2.83
2023-03-06T01:32:29.059Z,3.30
2023-03-06T01:37:49.823Z,2.97
2023-03-06T01:43:31.735Z,2.65
2023-03-06T01:48:58.235Z,3.28
2023-03-06T01:54:27.255Z,3.35
2023-03-06T01:59:48.777Z,3.40
2023-03-06T02:05:09.986Z,3.15
2023-03-06T02:10:31.028Z,3.50
2023-03-06T02:15:51.679Z,3.75
2023-03-06T02:21:20.346Z,3.90
2023-03-06T02:26:41.278Z,3.75
2023-03-06T02:32:02.538Z,3.88
2023-03-06T02:37:24.470Z,4.40
2023-03-06T02:42:49.946Z,4.10
2023-03-06T02:48:12.707Z,3.92
2023-03-06T02:53:33.429Z,4.18
2023-03-06T02:58:54.172Z,4.10
2023-03-06T03:04:15.397Z,3.88
2023-03-06T03:09:37.318Z,4.97
2023-03-06T03:14:59.988Z,4.20
2023-03-06T03:20:22.390Z,4.93
2023-03-06T03:25:44.358Z,4.30
2023-03-06T03:31:06.477Z,5.20
2023-03-06T03:36:28.612Z,4.65
2023-03-06T03:41:49.841Z,5.13
2023-03-06T03:47:10.895Z,5.65
2023-03-06T03:52:32.093Z,5.25
2023-03-06T03:57:53.364Z,5.03
2023-03-06T04:03:14.090Z,6.03
2023-03-06T04:08:38.516Z,5.13
2023-03-06T04:13:59.746Z,4.82
2023-03-06T04:19:20.369Z,5.40
2023-03-06T04:24:41.083Z,5.60
2023-03-06T04:30:02.954Z,5.50
2023-03-06T04:35:25.211Z,5.50
2023-03-06T04:40:52.648Z,6.55
2023-03-06T04:46:13.364Z,5.80
2023-03-06T04:51:37.752Z,5.72
2023-03-06T04:56:58.901Z,5.57
2023-03-06T05:02:20.726Z,5.60
2023-03-06T05:07:41.754Z,6.35
2023-03-06T05:13:02.727Z,5.90
2023-03-06T05:18:23.818Z,6.70
2023-03-06T05:23:44.841Z,6.00
2023-03-06T05:29:05.638Z,6.28
2023-03-06T05:34:26.475Z,6.10
2023-03-06T05:39:47.372Z,6.75
2023-03-06T05:45:08.878Z,6.95
2023-03-06T05:50:30.173Z,6.82
2023-03-06T05:55:57.445Z,6.65
2023-03-06T06:01:19.360Z,8.73
2023-03-06T06:06:40.268Z,9.35
2023-03-06T06:12:02.655Z,8.88
2023-03-06T06:17:23.570Z,8.18
2023-03-06T06:22:44.572Z,7.72
2023-03-06T06:28:05.757Z,8.88
2023-03-06T06:33:26.729Z,7.63
2023-03-06T06:38:47.871Z,7.47
2023-03-06T06:44:11.256Z,7.60
2023-03-06T06:49:32.778Z,8.60
2023-03-06T06:54:53.604Z,8.32
2023-03-06T07:00:15.258Z,8.38
2023-03-06T07:05:35.715Z,9.05
2023-03-06T07:10:57.051Z,9.02
2023-03-06T07:16:18.168Z,8.50
2023-03-06T07:21:39.295Z,9.45
2023-03-06T07:27:00.324Z,10.02
2023-03-06T07:32:21.391Z,9.45
2023-03-06T07:37:42.863Z,8.82
2023-03-06T07:43:18.386Z,9.35
2023-03-06T07:48:47.413Z,11.23
2023-03-06T07:54:08.419Z,9.25
2023-03-06T07:59:29.112Z,9.23
2023-03-06T08:04:53.684Z,8.82
2023-03-06T08:10:15.038Z,9.93
2023-03-06T08:15:35.781Z,9.60
2023-03-06T08:21:06.359Z,9.68
2023-03-06T08:26:29.164Z,8.65
2023-03-06T08:31:50.035Z,9.48
2023-03-06T08:37:10.885Z,9.52
2023-03-06T08:42:32.218Z,9.13
2023-03-06T08:47:53.047Z,10.02
2023-03-06T08:53:13.946Z,9.18
2023-03-06T08:58:34.994Z,9.25
2023-03-06T09:03:57.719Z,9.43
2023-03-06T09:09:18.921Z,10.02
2023-03-06T09:14:40.000Z,9.70
2023-03-06T09:20:00.713Z,10.23
2023-03-06T09:25:23.309Z,9.93
2023-03-06T09:30:44.030Z,10.23
2023-03-06T09:36:05.710Z,10.05
2023-03-06T09:41:31.069Z,9.23
2023-03-06T09:47:00.977Z,9.25
2023-03-06T09:52:33.938Z,9.30
2023-03-06T09:57:56.191Z,8.45
2023-03-06T10:03:39.713Z,8.93
2023-03-06T10:09:41.487Z,8.47
2023-03-06T10:15:07.291Z,8.23
2023-03-06T10:20:49.702Z,8.63
2023-03-06T10:26:15.717Z,7.40
2023-03-06T10:31:36.427Z,8.20
2023-03-06T10:36:58.631Z,7.47
2023-03-06T10:42:19.471Z,7.03
2023-03-06T10:47:40.410Z,7.22
2023-03-06T10:53:10.757Z,8.38
2023-03-06T10:58:32.571Z,8.38
2023-03-06T11:03:54.222Z,7.78
2023-03-06T11:09:16.158Z,6.82
2023-03-06T11:14:37.045Z,7.07
2023-03-06T11:20:17.678Z,7.07
2023-03-06T11:25:43.910Z,6.75
2023-03-06T11:31:18.582Z,6.80
2023-03-06T11:36:48.028Z,5.90
2023-03-06T11:42:42.967Z,6.32
2023-03-06T11:48:13.937Z,5.57
2023-03-06T11:53:39.197Z,5.45
2023-03-06T11:59:18.845Z,5.75
2023-03-06T12:05:07.244Z,5.60
2023-03-06T12:10:31.782Z,5.97
2023-03-06T12:16:04.790Z,5.43
2023-03-06T12:21:37.759Z,5.10
2023-03-06T12:27:24.859Z,5.07
2023-03-06T12:33:10.418Z,5.07
2023-03-06T12:38:44.148Z,5.25
2023-03-06T12:44:26.368Z,5.10
2023-03-06T12:50:17.218Z,5.22
2023-03-06T12:55:46.301Z,5.07
2023-03-06T13:01:28.693Z,5.13
2023-03-06T13:07:04.639Z,5.40
2023-03-06T13:12:47.203Z,5.35
2023-03-06T13:18:23.390Z,5.60
2023-03-06T13:23:48.470Z,4.90
2023-03-06T13:29:36.966Z,6.10
2023-03-06T13:34:58.259Z,6.13
2023-03-06T13:40:27.283Z,5.53
2023-03-06T13:45:48.189Z,5.90
2023-03-06T13:51:23.048Z,6.13
2023-03-06T13:56:49.972Z,6.20
2023-03-06T14:02:37.201Z,7.00
2023-03-06T14:08:07.833Z,6.63
2023-03-06T14:13:41.845Z,5.53
2023-03-06T14:19:15.678Z,6.00
2023-03-06T14:24:38.330Z,6.85
2023-03-06T14:30:07.328Z,5.88
2023-03-06T14:35:32.338Z,4.65
2023-03-06T14:40:53.843Z,5.55
2023-03-06T14:46:19.977Z,4.40
2023-03-06T14:51:46.062Z,4.22
2023-03-06T14:57:08.985Z,4.82
2023-03-06T15:02:33.023Z,4.97
2023-03-06T15:07:55.308Z,4.13
2023-03-06T15:13:21.508Z,4.45
2023-03-06T15:19:00.450Z,4.10
2023-03-06T15:24:35.181Z,4.93
2023-03-06T15:30:34.070Z,4.50
2023-03-06T15:35:57.607Z,4.78
2023-03-06T15:41:23.196Z,5.85
2023-03-06T15:46:44.981Z,5.32
2023-03-06T15:52:07.040Z,5.40
2023-03-06T15:57:31.634Z,5.18
2023-03-06T16:02:53.394Z,4.32
2023-03-06T16:08:15.482Z,3.65
2023-03-06T16:13:36.854Z,4.40
2023-03-06T16:18:58.155Z,3.33
2023-03-06T16:24:19.334Z,3.10
2023-03-06T16:29:40.329Z,3.10
2023-03-06T16:35:01.515Z,3.17
2023-03-06T16:40:24.947Z,3.78
2023-03-06T16:45:46.104Z,3.78
2023-03-06T16:51:07.516Z,3.75
2023-03-06T16:56:29.124Z,5.28
2023-03-06T17:01:50.169Z,6.00
2023-03-06T17:07:11.643Z,4.55
2023-03-06T17:12:32.545Z,5.90
2023-03-06T17:17:53.690Z,5.63
2023-03-06T17:23:14.562Z,6.38
2023-03-06T17:28:36.468Z,6.00
2023-03-06T17:34:00.574Z,6.63
2023-03-06T17:39:21.411Z,5.93
2023-03-06T17:44:42.653Z,6.45
2023-03-06T17:50:04.145Z,6.22
2023-03-06T17:55:27.131Z,5.57
2023-03-06T18:00:48.433Z,6.07
2023-03-06T18:06:09.594Z,6.07
2023-03-06T18:11:30.733Z,6.28
2023-03-06T18:16:51.786Z,6.78
2023-03-06T18:22:12.772Z,7.20
2023-03-06T18:27:34.292Z,7.50
2023-03-06T18:32:55.269Z,7.97
2023-03-06T18:38:16.561Z,7.18
2023-03-06T18:43:37.675Z,7.88
2023-03-06T18:48:58.486Z,8.30
2023-03-06T18:54:19.360Z,7.50
2023-03-06T18:59:40.077Z,9.27
2023-03-06T19:05:00.839Z,9.77
2023-03-06T19:10:22.570Z,10.20
2023-03-06T19:15:48.119Z,10.85
2023-03-06T19:21:14.265Z,10.05
2023-03-06T19:26:35.903Z,7.93
2023-03-06T19:31:57.461Z,7.75
2023-03-06T19:37:18.754Z,8.23
2023-03-06T19:42:39.710Z,8.68
2023-03-06T19:48:01.003Z,9.20
2023-03-06T19:53:23.151Z,8.57
2023-03-06T19:58:43.973Z,8.25
2023-03-06T20:04:04.779Z,7.95
2023-03-06T20:09:26.019Z,8.25
2023-03-06T20:14:47.233Z,8.18
2023-03-06T20:20:09.349Z,7.30
2023-03-06T20:25:30.764Z,7.15
2023-03-06T20:30:51.740Z,8.07
2023-03-06T20:36:32.787Z,7.00
2023-03-06T20:41:53.866Z,6.95
2023-03-06T20:47:14.688Z,7.97
2023-03-06T20:52:35.526Z,7.80
2023-03-06T20:57:56.578Z,7.88
2023-03-06T21:03:17.376Z,7.47
2023-03-06T21:08:38.100Z,8.15
2023-03-06T21:13:58.813Z,7.80
2023-03-06T21:19:20.162Z,8.13
2023-03-06T21:24:41.463Z,7.72
2023-03-06T21:30:02.458Z,7.82
2023-03-06T21:35:23.762Z,7.57
2023-03-06T21:40:45.518Z,8.20
2023-03-06T21:46:07.039Z,7.47
2023-03-06T21:51:28.448Z,8.70
2023-03-06T21:56:49.713Z,8.23
2023-03-06T22:02:10.768Z,7.63
2023-03-06T22:07:34.961Z,7.88
2023-03-06T22:12:55.885Z,8.23
2023-03-06T22:18:16.859Z,7.82
2023-03-06T22:23:41.928Z,8.73
2023-03-06T22:29:05.366Z,9.43
2023-03-06T22:34:26.848Z,9.55
2023-03-06T22:39:47.876Z,9.88
2023-03-06T22:45:09.414Z,10.48
2023-03-06T22:50:32.504Z,10.32
2023-03-06T22:55:53.579Z,9.55
2023-03-06T23:01:16.505Z,9.52
2023-03-06T23:06:39.703Z,10.48
2023-03-06T23:12:00.645Z,10.80
2023-03-06T23:17:40.088Z,10.63
2023-03-06T23:23:19.839Z,10.82
2023-03-06T23:28:40.893Z,9.68
2023-03-06T23:34:02.505Z,10.32
2023-03-06T23:39:23.853Z,9.77
2023-03-06T23:44:45.216Z,10.77
2023-03-06T23:50:07.211Z,10.93
2023-03-06T23:55:27.654Z,12.35
